createdAt,value
2023-04-15T00:00:24.022Z,12.67
2023-04-15T00:01:24.202Z,12.71
2023-04-15T00:02:24.479Z,12.67
2023-04-15T00:03:24.780Z,12.67
2023-04-15T00:04:24.789Z,12.67
2023-04-15T00:05:24.973Z,12.71
2023-04-15T00:06:25.079Z,12.71
2023-04-15T00:07:25.277Z,12.72
2023-04-15T00:08:25.456Z,12.67
2023-04-15T00:09:25.645Z,12.66
2023-04-15T00:10:25.837Z,12.67
2023-04-15T00:11:26.013Z,12.69
2023-04-15T00:12:26.187Z,12.69
2023-04-15T00:13:26.368Z,12.72
2023-04-15T00:14:26.570Z,12.72
2023-04-15T00:15:26.715Z,12.67
2023-04-15T00:16:26.906Z,12.71
2023-04-15T00:17:27.133Z,12.74
2023-04-15T00:18:27.248Z,12.71
2023-04-15T00:19:27.393Z,12.67
2023-04-15T00:20:27.583Z,12.69
2023-04-15T00:21:27.771Z,12.72
2023-04-15T00:22:27.959Z,12.71
2023-04-15T00:23:28.122Z,12.67
2023-04-15T00:24:28.251Z,12.71
2023-04-15T00:25:28.421Z,12.64
2023-04-15T00:26:28.598Z,12.72
2023-04-15T00:27:28.785Z,12.72
2023-04-15T00:28:28.970Z,12.69
2023-04-15T00:29:29.116Z,12.69
2023-04-15T00:30:29.302Z,12.69
2023-04-15T00:31:29.658Z,12.69
2023-04-15T00:32:29.717Z,12.64
2023-04-15T00:33:29.832Z,12.67
2023-04-15T00:34:29.973Z,12.67
2023-04-15T00:35:30.149Z,12.71
2023-04-15T00:36:30.343Z,12.71
2023-04-15T00:37:30.511Z,12.72
2023-04-15T00:38:30.657Z,12.71
2023-04-15T00:39:30.845Z,12.69
2023-04-15T00:40:31.017Z,12.69
2023-04-15T00:41:31.195Z,12.72
2023-04-15T00:42:31.396Z,12.72
2023-04-15T00:43:31.561Z,12.72
2023-04-15T00:44:31.728Z,12.71
2023-04-15T00:45:31.971Z,12.71
2023-04-15T00:46:32.087Z,12.74
2023-04-15T00:47:32.308Z,12.67
2023-04-15T00:48:32.480Z,12.74
2023-04-15T00:49:32.636Z,12.74
2023-04-15T00:50:32.822Z,12.72
2023-04-15T00:51:32.957Z,12.74
2023-04-15T00:52:33.139Z,12.67
2023-04-15T00:53:33.297Z,12.71
2023-04-15T00:54:33.450Z,12.67
2023-04-15T00:55:33.658Z,12.72
2023-04-15T00:56:33.817Z,12.74
2023-04-15T00:57:33.973Z,12.75
2023-04-15T00:58:34.160Z,12.72
2023-04-15T00:59:34.351Z,12.72
2023-04-15T01:00:34.544Z,12.72
2023-04-15T01:01:34.732Z,12.72
2023-04-15T01:02:34.962Z,12.74
2023-04-15T01:03:35.115Z,12.72
2023-04-15T01:04:35.246Z,12.74
2023-04-15T01:05:35.368Z,12.72
2023-04-15T01:06:35.520Z,12.75
2023-04-15T01:07:35.700Z,12.75
2023-04-15T01:08:35.897Z,12.74
2023-04-15T01:09:36.044Z,12.75
2023-04-15T01:10:36.256Z,12.74
2023-04-15T01:11:36.441Z,12.75
2023-04-15T01:12:36.597Z,12.74
2023-04-15T01:13:36.759Z,12.75
2023-04-15T01:14:36.954Z,12.78
2023-04-15T01:15:37.094Z,12.78
2023-04-15T01:16:37.286Z,12.75
2023-04-15T01:17:37.492Z,12.74
2023-04-15T01:18:37.636Z,12.75
2023-04-15T01:19:37.806Z,12.75
2023-04-15T01:20:37.964Z,12.75
2023-04-15T01:21:38.135Z,12.72
2023-04-15T01:22:38.309Z,12.78
2023-04-15T01:23:38.463Z,12.78
2023-04-15T01:24:38.657Z,12.75
2023-04-15T01:25:38.806Z,12.75
2023-04-15T01:26:39.003Z,12.78
2023-04-15T01:27:39.154Z,12.78
2023-04-15T01:28:39.368Z,12.79
2023-04-15T01:29:39.519Z,12.78
2023-04-15T01:30:39.671Z,12.78
2023-04-15T01:31:39.865Z,12.80
2023-04-15T01:32:40.074Z,12.78
2023-04-15T01:33:40.209Z,12.75
2023-04-15T01:34:40.408Z,12.79
2023-04-15T01:35:40.587Z,12.78
2023-04-15T01:36:40.755Z,12.79
2023-04-15T01:37:40.912Z,12.80
2023-04-15T01:38:41.094Z,12.78
2023-04-15T01:39:41.270Z,12.78
2023-04-15T01:40:41.416Z,12.78
2023-04-15T01:41:41.584Z,12.79
2023-04-15T01:42:41.766Z,12.79
2023-04-15T01:43:41.916Z,12.78
2023-04-15T01:44:42.076Z,12.75
2023-04-15T01:45:42.247Z,12.80
2023-04-15T01:46:42.448Z,12.80
2023-04-15T01:47:42.718Z,12.79
2023-04-15T01:48:42.778Z,12.79
2023-04-15T01:49:42.973Z,12.78
2023-04-15T01:50:43.098Z,12.79
2023-04-15T01:51:43.247Z,12.75
2023-04-15T01:52:43.433Z,12.80
2023-04-15T01:53:43.573Z,12.79
2023-04-15T01:54:43.819Z,12.79
2023-04-15T01:55:43.966Z,12.78
2023-04-15T01:56:44.117Z,12.74
2023-04-15T01:57:44.278Z,12.79
2023-04-15T01:58:44.446Z,12.78
2023-04-15T01:59:44.624Z,12.80
2023-04-15T02:00:44.844Z,12.78
2023-04-15T02:01:44.989Z,12.79
2023-04-15T02:02:45.277Z,12.80
2023-04-15T02:03:45.471Z,12.79
2023-04-15T02:04:45.514Z,12.78
2023-04-15T02:05:45.664Z,12.79
2023-04-15T02:06:45.815Z,12.78
2023-04-15T02:07:46.014Z,12.79
2023-04-15T02:08:46.180Z,12.79
2023-04-15T02:09:46.357Z,12.78
2023-04-15T02:10:46.515Z,12.78
2023-04-15T02:11:46.690Z,12.78
2023-04-15T02:12:46.868Z,12.78
2023-04-15T02:13:47.037Z,12.74
2023-04-15T02:14:47.202Z,12.78
2023-04-15T02:15:47.360Z,12.80
2023-04-15T02:16:47.587Z,12.79
2023-04-15T02:17:47.744Z,12.78
2023-04-15T02:18:47.907Z,12.80
2023-04-15T02:19:48.078Z,12.79
2023-04-15T02:20:48.258Z,12.74
2023-04-15T02:21:48.439Z,12.75
2023-04-15T02:22:48.621Z,12.78
2023-04-15T02:23:48.786Z,12.78
2023-04-15T02:24:48.962Z,12.74
2023-04-15T02:25:53.923Z,12.78
2023-04-15T02:26:50.318Z,12.78
2023-04-15T02:27:49.512Z,12.75
2023-04-15T02:28:49.636Z,12.78
2023-04-15T02:29:49.802Z,12.78
2023-04-15T02:30:49.977Z,12.78
2023-04-15T02:31:50.254Z,12.75
2023-04-15T02:32:50.391Z,12.79
2023-04-15T02:33:50.489Z,12.75
2023-04-15T02:34:50.666Z,12.79
2023-04-15T02:35:50.864Z,12.74
2023-04-15T02:36:51.021Z,12.75
2023-04-15T02:37:51.219Z,12.75
2023-04-15T02:38:51.393Z,12.75
2023-04-15T02:39:51.548Z,12.78
2023-04-15T02:40:51.705Z,12.75
2023-04-15T02:41:51.911Z,12.75
2023-04-15T02:42:52.063Z,12.72
2023-04-15T02:43:52.235Z,12.75
2023-04-15T02:44:52.408Z,12.74
2023-04-15T02:45:52.687Z,12.75
2023-04-15T02:46:52.902Z,12.72
2023-04-15T02:47:53.097Z,12.72
2023-04-15T02:48:53.124Z,12.74
2023-04-15T02:49:53.313Z,12.74
2023-04-15T02:50:53.493Z,12.71
2023-04-15T02:51:53.660Z,12.74
2023-04-15T02:52:53.832Z,12.74
2023-04-15T02:53:54.003Z,12.72
2023-04-15T02:54:54.188Z,12.67
2023-04-15T02:55:54.377Z,12.74
2023-04-15T02:56:54.550Z,12.69
2023-04-15T02:57:54.736Z,12.64
2023-04-15T02:58:54.879Z,12.71
2023-04-15T02:59:55.075Z,12.67
2023-04-15T03:00:55.220Z,12.71
2023-04-15T03:01:55.501Z,12.69
2023-04-15T03:02:55.765Z,12.69
2023-04-15T03:03:55.818Z,12.72
2023-04-15T03:04:55.958Z,12.67
2023-04-15T03:05:56.109Z,12.69
2023-04-15T03:06:56.279Z,12.67
2023-04-15T03:07:56.414Z,12.69
2023-04-15T03:08:56.586Z,12.71
2023-04-15T03:09:56.757Z,12.69
2023-04-15T03:10:56.945Z,12.64
2023-04-15T03:11:57.118Z,12.69
2023-04-15T03:12:57.275Z,12.66
2023-04-15T03:13:57.443Z,12.66
2023-04-15T03:14:57.627Z,12.67
2023-04-15T03:15:57.825Z,12.67
2023-04-15T03:16:57.975Z,12.64
2023-04-15T03:17:58.207Z,12.64
2023-04-15T03:18:58.337Z,12.67
2023-04-15T03:19:58.481Z,12.66
2023-04-15T03:20:58.634Z,12.67
2023-04-15T03:21:58.807Z,12.67
2023-04-15T03:22:58.961Z,12.67
2023-04-15T03:23:59.141Z,12.66
2023-04-15T03:24:59.316Z,12.66
2023-04-15T03:25:59.479Z,12.63
2023-04-15T03:26:59.649Z,12.67
2023-04-15T03:27:59.802Z,12.67
2023-04-15T03:29:00.201Z,12.63
2023-04-15T03:30:00.177Z,12.67
2023-04-15T03:31:00.440Z,12.66
2023-04-15T03:32:00.534Z,12.66
2023-04-15T03:33:00.738Z,12.64
2023-04-15T03:34:00.875Z,12.67
2023-04-15T03:35:01.063Z,12.67
2023-04-15T03:36:01.246Z,12.67
2023-04-15T03:37:01.389Z,12.66
2023-04-15T03:38:01.559Z,12.66
2023-04-15T03:39:02.011Z,12.69
2023-04-15T03:40:01.960Z,12.66
2023-04-15T03:41:02.116Z,12.64
2023-04-15T03:42:02.255Z,12.67
2023-04-15T03:43:02.438Z,12.69
2023-04-15T03:44:02.605Z,12.67
2023-04-15T03:45:02.786Z,12.67
2023-04-15T03:46:02.995Z,12.67
2023-04-15T03:47:03.114Z,12.71
2023-04-15T03:48:16.667Z,12.66
2023-04-15T03:49:04.522Z,12.67
2023-04-15T03:50:03.624Z,12.72
2023-04-15T03:51:03.789Z,12.64
2023-04-15T03:52:03.944Z,12.67
2023-04-15T03:53:04.119Z,12.66
2023-04-15T03:54:04.422Z,12.71
2023-04-15T03:55:04.480Z,12.69
2023-04-15T03:56:04.670Z,12.67
2023-04-15T03:57:04.832Z,12.67
2023-04-15T03:58:05.009Z,12.66
2023-04-15T03:59:05.182Z,12.72
2023-04-15T04:00:05.343Z,12.71
2023-04-15T04:01:05.532Z,12.66
2023-04-15T04:02:05.847Z,12.69
2023-04-15T04:03:05.996Z,12.71
2023-04-15T04:04:06.071Z,12.67
2023-04-15T04:05:06.208Z,12.66
2023-04-15T04:06:06.374Z,12.64
2023-04-15T04:07:06.550Z,12.67
2023-04-15T04:08:06.704Z,12.67
2023-04-15T04:09:06.873Z,12.69
2023-04-15T04:10:07.064Z,12.71
2023-04-15T04:11:07.202Z,12.66
2023-04-15T04:12:07.373Z,12.69
2023-04-15T04:13:07.539Z,12.69
2023-04-15T04:14:07.718Z,12.69
2023-04-15T04:15:07.893Z,12.71
2023-04-15T04:16:08.257Z,12.69
2023-04-15T04:17:08.264Z,12.69
2023-04-15T04:18:08.398Z,12.71
2023-04-15T04:19:08.552Z,12.69
2023-04-15T04:20:08.727Z,12.71
2023-04-15T04:21:08.897Z,12.69
2023-04-15T04:22:09.068Z,12.66
2023-04-15T04:23:09.256Z,12.69
2023-04-15T04:24:09.439Z,12.69
2023-04-15T04:25:09.625Z,12.69
2023-04-15T04:26:09.778Z,12.72
2023-04-15T04:27:10.015Z,12.72
2023-04-15T04:28:10.153Z,12.71
2023-04-15T04:29:10.345Z,12.71
2023-04-15T04:30:10.494Z,12.71
2023-04-15T04:31:10.689Z,12.72
2023-04-15T04:32:10.951Z,12.72
2023-04-15T04:33:11.047Z,12.71
2023-04-15T04:34:11.238Z,12.71
2023-04-15T04:35:11.394Z,12.72
2023-04-15T04:36:11.547Z,12.71
2023-04-15T04:37:11.734Z,12.74
2023-04-15T04:38:11.928Z,12.71
2023-04-15T04:39:12.093Z,12.74
2023-04-15T04:40:12.248Z,12.74
2023-04-15T04:41:12.446Z,12.74
2023-04-15T04:42:12.665Z,12.72
2023-04-15T04:43:12.772Z,12.67
2023-04-15T04:44:12.946Z,12.75
2023-04-15T04:45:13.102Z,12.75
2023-04-15T04:46:13.316Z,12.75
2023-04-15T04:47:13.458Z,12.74
2023-04-15T04:48:13.625Z,12.75
2023-04-15T04:49:13.798Z,12.74
2023-04-15T04:50:13.983Z,12.78
2023-04-15T04:51:14.116Z,12.72
2023-04-15T04:52:14.276Z,12.79
2023-04-15T04:53:14.437Z,12.79
2023-04-15T04:54:14.656Z,12.78
2023-04-15T04:55:14.766Z,12.79
2023-04-15T04:56:14.923Z,12.82
2023-04-15T04:57:15.086Z,12.75
2023-04-15T04:58:15.247Z,12.78
2023-04-15T04:59:15.566Z,12.82
2023-04-15T05:00:15.604Z,12.83
2023-04-15T05:01:15.786Z,12.80
2023-04-15T05:02:16.038Z,12.86
2023-04-15T05:03:16.248Z,12.83
2023-04-15T05:04:16.360Z,12.83
2023-04-15T05:05:16.477Z,12.82
2023-04-15T05:06:16.612Z,12.86
2023-04-15T05:07:16.781Z,12.83
2023-04-15T05:08:16.947Z,12.83
2023-04-15T05:09:17.139Z,12.85
2023-04-15T05:10:17.304Z,12.85
2023-04-15T05:11:17.477Z,12.85
2023-04-15T05:12:17.630Z,12.85
2023-04-15T05:13:17.799Z,12.85
2023-04-15T05:14:17.988Z,12.87
2023-04-15T05:15:18.129Z,12.83
2023-04-15T05:16:18.331Z,12.82
2023-04-15T05:17:18.452Z,12.86
2023-04-15T05:18:18.611Z,12.86
2023-04-15T05:19:18.829Z,12.86
2023-04-15T05:20:19.011Z,12.86
2023-04-15T05:21:19.161Z,12.86
2023-04-15T05:22:19.324Z,12.90
2023-04-15T05:23:19.492Z,12.86
2023-04-15T05:24:19.671Z,12.86
2023-04-15T05:25:19.852Z,12.90
2023-04-15T05:26:20.012Z,12.85
2023-04-15T05:27:20.181Z,12.87
2023-04-15T05:28:20.415Z,12.87
2023-04-15T05:29:20.512Z,12.90
2023-04-15T05:30:20.675Z,12.87
2023-04-15T05:31:20.880Z,12.85
2023-04-15T05:32:21.033Z,12.91
2023-04-15T05:33:21.197Z,12.87
2023-04-15T05:34:21.365Z,12.94
2023-04-15T05:35:21.553Z,12.90
2023-04-15T05:36:21.734Z,12.95
2023-04-15T05:37:21.879Z,12.94
2023-04-15T05:38:22.033Z,12.91
2023-04-15T05:39:22.192Z,12.94
2023-04-15T05:40:22.372Z,12.94
2023-04-15T05:41:22.540Z,13.00
2023-04-15T05:42:22.715Z,12.95
2023-04-15T05:43:22.861Z,12.95
2023-04-15T05:44:23.021Z,12.98
2023-04-15T05:45:23.198Z,13.00
2023-04-15T05:46:23.407Z,13.00
2023-04-15T05:47:23.626Z,12.97
2023-04-15T05:48:23.683Z,13.03
2023-04-15T05:49:23.854Z,13.04
2023-04-15T05:50:24.033Z,13.03
2023-04-15T05:51:24.261Z,13.04
2023-04-15T05:52:24.378Z,13.05
2023-04-15T05:53:24.526Z,13.07
2023-04-15T05:54:24.693Z,13.07
2023-04-15T05:55:24.869Z,13.09
2023-04-15T05:56:25.042Z,13.12
2023-04-15T05:57:25.182Z,13.12
2023-04-15T05:58:25.358Z,13.15
2023-04-15T05:59:25.521Z,13.18
2023-04-15T06:00:25.696Z,13.16
2023-04-15T06:01:25.875Z,13.19
2023-04-15T06:02:26.093Z,13.22
2023-04-15T06:03:26.254Z,13.23
2023-04-15T06:04:26.505Z,13.27
2023-04-15T06:05:26.514Z,13.27
2023-04-15T06:06:26.707Z,13.31
2023-04-15T06:07:26.870Z,13.28
2023-04-15T06:08:27.027Z,13.31
2023-04-15T06:09:27.181Z,13.34
2023-04-15T06:10:27.360Z,13.38
2023-04-15T06:11:27.537Z,13.35
2023-04-15T06:12:27.709Z,13.43
2023-04-15T06:13:27.866Z,13.44
2023-04-15T06:14:28.045Z,13.49
2023-04-15T06:15:28.239Z,13.51
2023-04-15T06:16:28.380Z,13.52
2023-04-15T06:17:28.539Z,13.55
2023-04-15T06:18:28.709Z,13.53
2023-04-15T06:19:28.834Z,13.55
2023-04-15T06:20:29.120Z,13.60
2023-04-15T06:21:29.190Z,13.64
2023-04-15T06:22:29.356Z,13.70
2023-04-15T06:23:29.541Z,13.71
2023-04-15T06:24:29.700Z,13.81
2023-04-15T06:25:29.871Z,13.84
2023-04-15T06:26:30.046Z,13.88
2023-04-15T06:27:30.216Z,13.93
2023-04-15T06:28:30.369Z,13.99
2023-04-15T06:29:30.579Z,14.01
2023-04-15T06:30:30.747Z,14.13
2023-04-15T06:31:30.892Z,14.17
2023-04-15T06:32:31.112Z,14.22
2023-04-15T06:33:31.204Z,14.32
2023-04-15T06:34:31.378Z,14.44
2023-04-15T06:35:31.554Z,14.48
2023-04-15T06:36:31.736Z,14.55
2023-04-15T06:37:31.885Z,14.62
2023-04-15T06:38:32.048Z,14.72
2023-04-15T06:39:32.205Z,14.80
2023-04-15T06:40:32.398Z,14.82
2023-04-15T06:41:32.576Z,14.92
2023-04-15T06:42:32.774Z,14.99
2023-04-15T06:43:32.918Z,15.06
2023-04-15T06:44:33.986Z,15.09
2023-04-15T06:45:33.307Z,15.18
2023-04-15T06:46:33.454Z,15.21
2023-04-15T06:47:33.669Z,15.30
2023-04-15T06:48:33.858Z,15.39
2023-04-15T06:49:34.013Z,15.40
2023-04-15T06:50:34.179Z,15.49
2023-04-15T06:51:34.361Z,15.57
2023-04-15T06:52:34.514Z,15.62
2023-04-15T06:53:34.738Z,15.71
2023-04-15T06:54:34.892Z,15.76
2023-04-15T06:55:35.051Z,15.81
2023-04-15T06:56:35.198Z,15.89
2023-04-15T06:57:35.367Z,15.96
2023-04-15T06:58:35.557Z,16.02
2023-04-15T06:59:35.716Z,16.04
2023-04-15T07:00:35.913Z,16.14
2023-04-15T07:01:36.453Z,16.17
2023-04-15T07:02:36.430Z,16.26
2023-04-15T07:03:36.430Z,16.29
2023-04-15T07:04:36.635Z,16.32
2023-04-15T07:05:36.774Z,16.36
2023-04-15T07:06:36.935Z,16.46
2023-04-15T07:07:37.105Z,16.47
2023-04-15T07:08:37.350Z,16.51
2023-04-15T07:09:37.480Z,16.60
2023-04-15T07:10:37.643Z,16.64
2023-04-15T07:11:37.837Z,16.69
2023-04-15T07:12:37.989Z,16.75
2023-04-15T07:13:38.158Z,16.78
2023-04-15T07:14:38.320Z,16.86
2023-04-15T07:15:38.487Z,16.91
2023-04-15T07:16:38.697Z,16.94
2023-04-15T07:17:38.859Z,17.01
2023-04-15T07:18:39.014Z,17.02
2023-04-15T07:19:39.168Z,17.07
2023-04-15T07:20:39.367Z,17.10
2023-04-15T07:21:41.738Z,17.15
2023-04-15T07:22:39.736Z,17.17
2023-04-15T07:23:39.922Z,17.20
2023-04-15T07:24:40.101Z,17.28
2023-04-15T07:25:40.262Z,17.30
2023-04-15T07:26:40.505Z,17.32
2023-04-15T07:27:40.591Z,17.38
2023-04-15T07:28:40.762Z,17.40
2023-04-15T07:29:40.944Z,17.43
2023-04-15T07:30:41.131Z,17.45
2023-04-15T07:31:41.284Z,17.49
2023-04-15T07:32:41.498Z,17.46
2023-04-15T07:33:41.673Z,17.50
2023-04-15T07:34:41.812Z,17.55
2023-04-15T07:35:41.992Z,17.57
2023-04-15T07:36:42.178Z,17.58
2023-04-15T07:37:42.331Z,17.60
2023-04-15T07:38:42.567Z,17.60
2023-04-15T07:39:42.666Z,17.62
2023-04-15T07:40:42.835Z,17.65
2023-04-15T07:41:43.026Z,17.64
2023-04-15T07:42:43.193Z,17.65
2023-04-15T07:43:43.384Z,17.67
2023-04-15T07:44:43.586Z,17.70
2023-04-15T07:45:43.814Z,17.70
2023-04-15T07:46:43.971Z,17.76
2023-04-15T07:47:44.113Z,17.75
2023-04-15T07:48:44.317Z,17.72
2023-04-15T07:49:44.476Z,17.78
2023-04-15T07:50:44.654Z,17.80
2023-04-15T07:51:44.811Z,17.82
2023-04-15T07:52:45.071Z,17.80
2023-04-15T07:53:45.175Z,17.80
2023-04-15T07:54:45.366Z,17.86
2023-04-15T07:55:45.548Z,17.85
2023-04-15T07:56:45.711Z,17.85
2023-04-15T07:57:45.902Z,17.85
2023-04-15T07:58:46.081Z,17.82
2023-04-15T07:59:46.223Z,17.86
2023-04-15T08:00:46.398Z,17.85
2023-04-15T08:01:46.579Z,17.79
2023-04-15T08:02:46.892Z,17.80
2023-04-15T08:03:47.091Z,17.78
2023-04-15T08:04:47.198Z,17.79
2023-04-15T08:05:47.374Z,17.76
2023-04-15T08:06:47.546Z,17.75
2023-04-15T08:07:47.679Z,17.76
2023-04-15T08:08:47.881Z,17.72
2023-04-15T08:09:48.077Z,17.75
2023-04-15T08:10:49.319Z,17.75
2023-04-15T08:11:48.384Z,17.72
2023-04-15T08:12:48.563Z,17.72
2023-04-15T08:13:48.742Z,17.75
2023-04-15T08:14:48.919Z,17.72
2023-04-15T08:15:49.139Z,17.76
2023-04-15T08:16:49.300Z,17.75
2023-04-15T08:17:49.474Z,17.75
2023-04-15T08:18:49.628Z,17.76
2023-04-15T08:19:49.767Z,17.76
2023-04-15T08:20:49.958Z,17.80
2023-04-15T08:21:50.122Z,17.82
2023-04-15T08:22:50.274Z,17.83
2023-04-15T08:23:50.461Z,17.82
2023-04-15T08:24:50.639Z,17.85
2023-04-15T08:25:50.809Z,17.89
2023-04-15T08:26:51.009Z,17.85
2023-04-15T08:27:51.157Z,17.87
2023-04-15T08:28:51.345Z,17.87
2023-04-15T08:29:51.518Z,17.89
2023-04-15T08:30:51.702Z,17.86
2023-04-15T08:31:51.981Z,17.86
2023-04-15T08:32:52.081Z,17.87
2023-04-15T08:33:52.206Z,17.85
2023-04-15T08:34:52.394Z,17.83
2023-04-15T08:35:52.571Z,17.83
2023-04-15T08:36:52.732Z,17.82
2023-04-15T08:37:52.919Z,17.80
2023-04-15T08:38:53.059Z,17.80
2023-04-15T08:39:53.240Z,17.80
2023-04-15T08:40:53.392Z,17.78
2023-04-15T08:41:53.598Z,17.79
2023-04-15T08:42:53.792Z,17.72
2023-04-15T08:43:53.937Z,17.72
2023-04-15T08:44:54.099Z,17.72
2023-04-15T08:45:54.283Z,17.68
2023-04-15T08:46:54.502Z,17.65
2023-04-15T08:47:54.722Z,17.61
2023-04-15T08:48:54.850Z,17.62
2023-04-15T08:49:55.034Z,17.60
2023-04-15T08:50:55.188Z,17.55
2023-04-15T08:51:55.346Z,17.53
2023-04-15T08:52:55.586Z,17.53
2023-04-15T08:53:55.696Z,17.46
2023-04-15T08:54:55.872Z,17.46
2023-04-15T08:55:56.112Z,17.43
2023-04-15T08:56:56.295Z,17.42
2023-04-15T08:57:56.455Z,17.35
2023-04-15T08:58:56.599Z,17.34
2023-04-15T08:59:56.774Z,17.34
2023-04-15T09:00:57.001Z,17.32
2023-04-15T09:01:57.161Z,17.28
2023-04-15T09:02:57.437Z,17.30
2023-04-15T09:03:57.632Z,17.25
2023-04-15T09:04:57.694Z,17.20
2023-04-15T09:05:57.864Z,17.20
2023-04-15T09:06:58.050Z,17.17
2023-04-15T09:07:58.273Z,17.16
2023-04-15T09:08:58.422Z,17.13
2023-04-15T09:09:58.603Z,17.13
2023-04-15T09:10:58.781Z,17.07
2023-04-15T09:11:58.950Z,17.06
2023-04-15T09:12:59.147Z,17.01
2023-04-15T09:13:59.333Z,17.02
2023-04-15T09:14:59.478Z,16.99
2023-04-15T09:15:59.665Z,16.99
2023-04-15T09:16:59.950Z,16.93
2023-04-15T09:18:00.062Z,16.91
2023-04-15T09:19:00.381Z,16.93
2023-04-15T09:20:00.389Z,16.87
2023-04-15T09:21:00.553Z,16.87
2023-04-15T09:22:00.725Z,16.83
2023-04-15T09:23:00.938Z,16.84
2023-04-15T09:24:01.658Z,16.79
2023-04-15T09:25:01.258Z,16.76
2023-04-15T09:26:01.463Z,16.78
2023-04-15T09:27:01.613Z,16.75
2023-04-15T09:28:01.845Z,16.75
2023-04-15T09:29:02.082Z,16.71
2023-04-15T09:30:02.305Z,16.71
2023-04-15T09:31:02.367Z,16.71
2023-04-15T09:32:02.562Z,16.65
2023-04-15T09:33:02.748Z,16.64
2023-04-15T09:34:03.109Z,16.65
2023-04-15T09:35:03.116Z,16.59
2023-04-15T09:36:03.300Z,16.60
2023-04-15T09:37:03.550Z,16.57
2023-04-15T09:38:03.632Z,16.53
2023-04-15T09:39:03.785Z,16.56
2023-04-15T09:40:03.962Z,16.54
2023-04-15T09:41:04.140Z,16.53
2023-04-15T09:42:04.335Z,16.49
2023-04-15T09:43:04.498Z,16.47
2023-04-15T09:44:04.693Z,16.51
2023-04-15T09:45:04.845Z,16.47
2023-04-15T09:46:05.114Z,16.44
2023-04-15T09:47:05.225Z,16.41
2023-04-15T09:48:05.450Z,16.39
2023-04-15T09:49:05.573Z,16.41
2023-04-15T09:50:05.740Z,16.38
2023-04-15T09:51:05.912Z,16.32
2023-04-15T09:52:06.759Z,16.36
2023-04-15T09:53:06.335Z,16.36
2023-04-15T09:54:06.461Z,16.29
2023-04-15T09:55:06.635Z,16.32
2023-04-15T09:56:06.869Z,16.29
2023-04-15T09:57:07.011Z,16.28
2023-04-15T09:58:07.180Z,16.28
2023-04-15T09:59:07.342Z,16.25
2023-04-15T10:00:07.564Z,16.26
2023-04-15T10:01:07.814Z,16.23
2023-04-15T10:02:08.008Z,16.21
2023-04-15T10:03:08.234Z,16.20
2023-04-15T10:04:08.378Z,16.23
2023-04-15T10:05:08.412Z,16.20
2023-04-15T10:06:08.608Z,16.17
2023-04-15T10:07:09.063Z,16.17
2023-04-15T10:08:08.958Z,16.16
2023-04-15T10:09:09.127Z,16.16
2023-04-15T10:10:09.306Z,16.16
2023-04-15T10:11:09.480Z,16.16
2023-04-15T10:12:09.684Z,16.14
2023-04-15T10:13:09.876Z,16.14
2023-04-15T10:14:10.026Z,16.11
2023-04-15T10:15:10.238Z,16.13
2023-04-15T10:16:10.482Z,16.14
2023-04-15T10:17:10.570Z,16.04
2023-04-15T10:18:10.876Z,16.09
2023-04-15T10:19:10.922Z,16.11
2023-04-15T10:20:11.108Z,16.09
2023-04-15T10:21:11.296Z,16.04
2023-04-15T10:22:11.457Z,16.05
2023-04-15T10:23:12.903Z,16.07
2023-04-15T10:24:11.803Z,16.01
2023-04-15T10:25:12.004Z,16.01
2023-04-15T10:26:12.194Z,16.02
2023-04-15T10:27:12.338Z,16.04
2023-04-15T10:28:12.519Z,15.96
2023-04-15T10:29:12.684Z,15.96
2023-04-15T10:30:12.867Z,15.98
2023-04-15T10:31:13.166Z,15.96
2023-04-15T10:32:13.218Z,15.99
2023-04-15T10:33:13.429Z,15.95
2023-04-15T10:34:13.618Z,15.95
2023-04-15T10:35:13.774Z,15.98
2023-04-15T10:36:14.014Z,15.95
2023-04-15T10:37:14.124Z,15.92
2023-04-15T10:38:14.290Z,15.95
2023-04-15T10:39:14.449Z,15.91
2023-04-15T10:40:14.670Z,15.95
2023-04-15T10:41:15.806Z,15.94
2023-04-15T10:42:15.017Z,15.94
2023-04-15T10:43:15.184Z,15.94
2023-04-15T10:44:15.395Z,15.92
2023-04-15T10:45:15.554Z,15.92
2023-04-15T10:46:15.752Z,15.92
2023-04-15T10:47:15.919Z,15.95
2023-04-15T10:48:16.168Z,15.94
2023-04-15T10:49:16.248Z,15.91
2023-04-15T10:50:16.442Z,15.92
2023-04-15T10:51:16.634Z,15.89
2023-04-15T10:52:16.831Z,15.91
2023-04-15T10:53:17.002Z,15.91
2023-04-15T10:54:17.162Z,15.94
2023-04-15T10:55:17.318Z,15.92
2023-04-15T10:56:17.514Z,15.91
2023-04-15T10:57:17.702Z,15.92
2023-04-15T10:58:17.917Z,15.92
2023-04-15T10:59:18.043Z,15.95
2023-04-15T11:00:18.224Z,15.92
2023-04-15T11:01:18.375Z,15.94
2023-04-15T11:02:18.659Z,15.94
2023-04-15T11:03:18.773Z,15.95
2023-04-15T11:04:18.981Z,15.96
2023-04-15T11:05:19.054Z,15.94
2023-04-15T11:06:19.182Z,15.96
2023-04-15T11:07:19.354Z,15.98
2023-04-15T11:08:19.559Z,16.01
2023-04-15T11:09:19.698Z,16.04
2023-04-15T11:10:19.889Z,16.02
2023-04-15T11:11:20.088Z,16.05
2023-04-15T11:12:20.261Z,16.04
2023-04-15T11:13:20.404Z,16.05
2023-04-15T11:14:20.595Z,16.09
2023-04-15T11:15:20.748Z,16.05
2023-04-15T11:16:20.964Z,16.05
2023-04-15T11:17:21.145Z,16.05
2023-04-15T11:18:21.304Z,16.05
2023-04-15T11:19:21.471Z,16.07
2023-04-15T11:20:21.656Z,16.04
2023-04-15T11:21:21.822Z,16.09
2023-04-15T11:22:22.028Z,16.07
2023-04-15T11:23:22.179Z,16.07
2023-04-15T11:24:22.358Z,16.07
2023-04-15T11:25:22.536Z,16.05
2023-04-15T11:26:22.713Z,16.05
2023-04-15T11:27:22.900Z,16.05
2023-04-15T11:28:23.071Z,16.04
2023-04-15T11:29:23.237Z,16.05
2023-04-15T11:30:23.416Z,16.04
2023-04-15T11:31:23.625Z,16.05
2023-04-15T11:32:23.797Z,16.07
2023-04-15T11:33:23.994Z,16.07
2023-04-15T11:34:24.135Z,16.07
2023-04-15T11:35:24.335Z,16.09
2023-04-15T11:36:24.497Z,16.10
2023-04-15T11:37:24.655Z,16.04
2023-04-15T11:38:24.908Z,16.09
2023-04-15T11:39:25.034Z,16.01
2023-04-15T11:40:25.214Z,16.09
2023-04-15T11:41:25.413Z,16.05
2023-04-15T11:42:25.675Z,16.09
2023-04-15T11:43:25.735Z,16.09
2023-04-15T11:44:25.958Z,16.07
2023-04-15T11:45:26.130Z,16.07
2023-04-15T11:46:26.291Z,16.07
2023-04-15T11:47:26.480Z,16.07
2023-04-15T11:48:26.658Z,16.02
2023-04-15T11:49:26.846Z,16.05
2023-04-15T11:50:27.019Z,16.02
2023-04-15T11:51:27.177Z,16.04
2023-04-15T11:52:27.375Z,16.02
2023-04-15T11:53:27.558Z,16.04
2023-04-15T11:54:27.748Z,16.01
2023-04-15T11:55:27.885Z,16.02
2023-04-15T11:56:28.055Z,16.02
2023-04-15T11:57:28.232Z,16.02
2023-04-15T11:58:28.416Z,16.02
2023-04-15T11:59:38.936Z,16.01
2023-04-15T12:00:29.778Z,15.99
2023-04-15T12:01:28.976Z,16.02
2023-04-15T12:02:29.188Z,15.99
2023-04-15T12:03:29.481Z,15.96
2023-04-15T12:04:29.736Z,15.99
2023-04-15T12:05:29.683Z,15.99
2023-04-15T12:06:29.845Z,15.94
2023-04-15T12:07:30.030Z,15.94
2023-04-15T12:08:30.233Z,16.01
2023-04-15T12:09:32.413Z,15.98
2023-04-15T12:10:30.520Z,15.98
2023-04-15T12:11:30.698Z,15.95
2023-04-15T12:12:30.893Z,16.01
2023-04-15T12:13:31.070Z,15.98
2023-04-15T12:14:31.252Z,15.92
2023-04-15T12:15:31.494Z,15.96
2023-04-15T12:16:31.598Z,15.98
2023-04-15T12:17:31.796Z,15.96
2023-04-15T12:18:32.943Z,15.98
2023-04-15T12:19:32.145Z,15.95
2023-04-15T12:20:32.305Z,15.96
2023-04-15T12:21:32.468Z,15.96
2023-04-15T12:22:32.649Z,15.99
2023-04-15T12:23:32.818Z,15.98
2023-04-15T12:24:33.131Z,16.01
2023-04-15T12:25:33.221Z,15.99
2023-04-15T12:26:33.384Z,16.01
2023-04-15T12:27:33.547Z,15.98
2023-04-15T12:28:33.767Z,16.05
2023-04-15T12:29:33.952Z,16.07
2023-04-15T12:30:34.093Z,16.04
2023-04-15T12:31:34.309Z,16.05
2023-04-15T12:32:34.449Z,16.09
2023-04-15T12:33:34.645Z,16.05
2023-04-15T12:34:34.863Z,16.05
2023-04-15T12:35:34.953Z,16.10
2023-04-15T12:36:35.104Z,16.13
2023-04-15T12:37:35.268Z,16.10
2023-04-15T12:38:35.467Z,16.11
2023-04-15T12:39:35.621Z,16.10
2023-04-15T12:40:35.805Z,16.11
2023-04-15T12:41:35.934Z,16.13
2023-04-15T12:42:36.120Z,16.17
2023-04-15T12:43:36.284Z,16.17
2023-04-15T12:44:36.737Z,16.16
2023-04-15T12:45:36.611Z,16.16
2023-04-15T12:46:36.847Z,16.19
2023-04-15T12:47:37.006Z,16.26
2023-04-15T12:48:37.146Z,16.26
2023-04-15T12:49:37.330Z,16.29
2023-04-15T12:50:37.578Z,16.29
2023-04-15T12:51:37.671Z,16.29
2023-04-15T12:52:37.833Z,16.34
2023-04-15T12:53:38.004Z,16.35
2023-04-15T12:54:38.193Z,16.36